createdAt,value
2022-10-30T00:00:02.492Z,75.10
2022-10-30T00:03:05.994Z,75.40
2022-10-30T00:06:09.752Z,75.50
2022-10-30T00:09:14.396Z,75.50
2022-10-30T00:12:17.371Z,75.60
2022-10-30T00:15:20.534Z,75.60
2022-10-30T00:18:23.557Z,75.70
2022-10-30T00:21:26.851Z,75.60
2022-10-30T00:24:31.431Z,75.70
2022-10-30T00:27:34.481Z,75.80
2022-10-30T00:30:37.957Z,75.70
2022-10-30T00:33:41.022Z,75.80
2022-10-30T00:36:43.980Z,75.80
2022-10-30T00:39:48.449Z,76.00
2022-10-30T00:42:51.963Z,76.00
2022-10-30T00:45:55.911Z,76.00
2022-10-30T00:49:05.051Z,76.20
2022-10-30T00:52:11.299Z,76.30
2022-10-30T00:55:21.940Z,76.30
2022-10-30T00:58:30.590Z,76.40
2022-10-30T01:01:38.183Z,76.20
2022-10-30T01:04:45.161Z,76.60
2022-10-30T01:07:48.283Z,76.10
2022-10-30T01:10:53.183Z,76.00
2022-10-30T01:14:01.568Z,76.00
2022-10-30T01:17:30.592Z,76.00
2022-10-30T01:21:02.337Z,76.40
2022-10-30T01:24:29.328Z,76.30
2022-10-30T01:27:43.026Z,76.80
2022-10-30T01:31:05.415Z,76.30
2022-10-30T01:34:20.584Z,76.60
2022-10-30T01:37:35.476Z,76.60
2022-10-30T01:40:38.686Z,76.50
2022-10-30T01:43:46.570Z,76.40
2022-10-30T01:47:14.883Z,76.40
2022-10-30T01:50:33.584Z,76.50
2022-10-30T01:53:52.698Z,76.50
2022-10-30T01:57:08.914Z,76.50
2022-10-30T02:00:17.015Z,76.30
2022-10-30T02:03:21.866Z,76.20
2022-10-30T02:06:25.147Z,76.10
2022-10-30T02:09:28.274Z,76.00
2022-10-30T02:12:32.258Z,76.00
2022-10-30T02:15:38.581Z,75.90
2022-10-30T02:18:42.008Z,75.90
2022-10-30T02:21:46.475Z,75.70
2022-10-30T02:24:49.557Z,75.90
2022-10-30T02:27:53.087Z,75.90
2022-10-30T02:30:56.583Z,75.80
2022-10-30T02:33:59.641Z,75.70
2022-10-30T02:37:04.297Z,75.70
2022-10-30T02:40:09.353Z,75.60
2022-10-30T02:43:12.706Z,75.50
2022-10-30T02:46:15.710Z,75.50
2022-10-30T02:49:18.734Z,75.60
2022-10-30T02:52:23.091Z,75.60
2022-10-30T02:55:26.318Z,75.40
2022-10-30T02:58:29.312Z,75.40
2022-10-30T03:01:32.433Z,75.50
2022-10-30T03:04:35.635Z,75.50
2022-10-30T03:07:39.850Z,75.50
2022-10-30T03:10:42.889Z,75.50
2022-10-30T03:13:48.128Z,75.50
2022-10-30T03:16:52.475Z,75.30
2022-10-30T03:19:55.553Z,75.30
2022-10-30T03:23:00.001Z,75.40
2022-10-30T03:26:03.358Z,75.40
2022-10-30T03:29:06.564Z,75.50
2022-10-30T03:32:11.671Z,75.50
2022-10-30T03:35:14.765Z,75.50
2022-10-30T03:38:19.451Z,75.50
2022-10-30T03:41:22.443Z,75.40
2022-10-30T03:44:25.441Z,75.40
2022-10-30T03:47:28.410Z,75.50
2022-10-30T03:50:31.826Z,75.50
2022-10-30T03:53:36.252Z,75.50
2022-10-30T03:56:39.446Z,75.40
2022-10-30T03:59:42.546Z,75.50
2022-10-30T04:02:50.540Z,75.50
2022-10-30T04:05:54.682Z,75.70
2022-10-30T04:08:58.881Z,75.80
2022-10-30T04:12:01.880Z,76.20
2022-10-30T04:15:06.791Z,75.60
2022-10-30T04:18:12.719Z,75.60
2022-10-30T04:21:15.707Z,75.50
2022-10-30T04:24:20.490Z,75.50
2022-10-30T04:27:23.484Z,75.60
2022-10-30T04:30:27.554Z,75.70
2022-10-30T04:33:30.636Z,75.90
2022-10-30T04:36:34.049Z,76.10
2022-10-30T04:39:42.288Z,76.10
2022-10-30T04:42:48.725Z,76.30
2022-10-30T04:45:51.759Z,76.20
2022-10-30T04:48:54.829Z,76.50
2022-10-30T04:51:57.809Z,76.70
2022-10-30T04:55:02.171Z,76.10
2022-10-30T04:58:07.893Z,76.10
2022-10-30T05:01:11.057Z,76.10
2022-10-30T05:04:14.070Z,76.10
2022-10-30T05:07:18.387Z,76.10
2022-10-30T05:10:22.837Z,76.20
2022-10-30T05:13:26.089Z,76.30
2022-10-30T05:16:29.247Z,76.80
2022-10-30T05:19:32.345Z,76.40
2022-10-30T05:22:35.379Z,76.80
2022-10-30T05:25:39.751Z,76.40
2022-10-30T05:28:42.709Z,76.20
2022-10-30T05:31:45.917Z,76.50
2022-10-30T05:34:48.895Z,76.40
2022-10-30T05:37:52.111Z,76.30
2022-10-30T05:40:56.530Z,76.40
2022-10-30T05:43:59.688Z,76.50
2022-10-30T05:47:02.688Z,76.40
2022-10-30T05:50:07.098Z,76.60
2022-10-30T05:53:11.077Z,76.50
2022-10-30T05:56:15.517Z,76.60
2022-10-30T05:59:19.040Z,76.80
2022-10-30T06:02:22.469Z,76.80
2022-10-30T06:05:25.483Z,76.90
2022-10-30T06:08:28.432Z,77.10
2022-10-30T06:11:32.815Z,77.10
2022-10-30T06:14:35.948Z,77.20
2022-10-30T06:17:38.861Z,77.20
2022-10-30T06:20:41.822Z,77.30
2022-10-30T06:23:45.122Z,77.30
2022-10-30T06:26:50.857Z,77.40
2022-10-30T06:29:54.859Z,77.40
2022-10-30T06:32:59.374Z,77.40
2022-10-30T06:36:02.634Z,77.30
2022-10-30T06:39:05.615Z,77.30
2022-10-30T06:42:10.562Z,77.20
2022-10-30T06:45:15.078Z,77.10
2022-10-30T06:48:18.794Z,77.10
2022-10-30T06:51:22.259Z,77.00
2022-10-30T06:54:25.365Z,77.00
2022-10-30T06:57:30.064Z,77.00
2022-10-30T07:00:33.184Z,77.00
2022-10-30T07:03:36.738Z,76.70
2022-10-30T07:06:39.733Z,76.90
2022-10-30T07:09:42.871Z,76.80
2022-10-30T07:12:55.308Z,76.80
2022-10-30T07:16:00.295Z,76.80
2022-10-30T07:19:04.578Z,77.30
2022-10-30T07:22:08.219Z,76.90
2022-10-30T07:25:11.341Z,77.00
2022-10-30T07:28:15.827Z,77.10
2022-10-30T07:31:28.920Z,77.20
2022-10-30T07:34:41.865Z,77.20
2022-10-30T07:37:44.803Z,77.20
2022-10-30T07:40:54.217Z,76.90
2022-10-30T07:43:58.543Z,76.30
2022-10-30T07:47:01.508Z,76.00
2022-10-30T07:50:04.717Z,75.80
2022-10-30T07:53:07.876Z,75.30
2022-10-30T07:56:10.944Z,75.20
2022-10-30T07:59:15.772Z,75.10
2022-10-30T08:02:18.835Z,75.10
2022-10-30T08:05:27.012Z,74.90
2022-10-30T08:08:32.459Z,75.20
2022-10-30T08:11:35.528Z,74.80
2022-10-30T08:14:39.814Z,74.80
2022-10-30T08:17:44.422Z,74.70
2022-10-30T08:20:51.351Z,74.70
2022-10-30T08:23:54.380Z,75.00
2022-10-30T08:26:57.460Z,74.50
2022-10-30T08:30:01.773Z,74.40
2022-10-30T08:33:07.569Z,74.40
2022-10-30T08:36:11.091Z,74.30
2022-10-30T08:39:14.050Z,74.20
2022-10-30T08:42:17.037Z,74.00
2022-10-30T08:45:26.526Z,73.90
2022-10-30T08:48:33.680Z,74.00
2022-10-30T08:51:37.289Z,73.70
2022-10-30T08:54:40.332Z,73.60
2022-10-30T08:57:43.438Z,73.60
2022-10-30T09:00:47.768Z,73.70
2022-10-30T09:03:50.748Z,73.30
2022-10-30T09:06:53.674Z,73.00
2022-10-30T09:09:56.783Z,72.80
2022-10-30T09:13:02.505Z,72.60
2022-10-30T09:16:07.928Z,72.40
2022-10-30T09:19:16.144Z,71.80
2022-10-30T09:22:21.595Z,72.00
2022-10-30T09:25:24.715Z,71.90
2022-10-30T09:28:27.774Z,71.90
2022-10-30T09:31:32.120Z,71.80
2022-10-30T09:34:35.945Z,71.60
2022-10-30T09:37:40.423Z,71.60
2022-10-30T09:41:05.703Z,71.40
2022-10-30T09:44:27.079Z,70.90
2022-10-30T09:47:45.715Z,70.70
2022-10-30T09:50:59.586Z,70.50
2022-10-30T09:54:16.386Z,70.80
2022-10-30T09:57:35.128Z,70.50
2022-10-30T10:00:41.916Z,70.30
2022-10-30T10:04:03.012Z,70.20
2022-10-30T10:07:18.470Z,69.60
2022-10-30T10:10:29.313Z,69.90
2022-10-30T10:13:43.111Z,69.70
2022-10-30T10:16:58.693Z,69.60
2022-10-30T10:20:05.714Z,69.40
2022-10-30T10:23:19.387Z,69.70
2022-10-30T10:26:31.736Z,69.40
2022-10-30T10:29:47.894Z,69.10
2022-10-30T10:36:40.849Z,69.60
2022-10-30T10:40:14.861Z,69.90
2022-10-30T10:43:32.471Z,69.80
2022-10-30T10:46:53.027Z,69.70
2022-10-30T10:50:19.350Z,69.80
2022-10-30T10:53:31.668Z,69.60
2022-10-30T10:56:40.552Z,70.50
2022-10-30T10:59:47.361Z,70.10
2022-10-30T11:03:00.109Z,70.30
2022-10-30T11:06:19.060Z,69.70
2022-10-30T11:09:25.536Z,70.00
2022-10-30T11:12:35.381Z,69.80
2022-10-30T11:15:54.852Z,69.90
2022-10-30T11:19:02.290Z,69.80
2022-10-30T11:22:18.392Z,69.90
2022-10-30T11:25:30.336Z,70.20
2022-10-30T11:28:46.692Z,70.20
2022-10-30T11:32:05.181Z,70.20
2022-10-30T11:35:15.226Z,70.20
2022-10-30T11:38:21.853Z,70.40
2022-10-30T11:41:27.436Z,70.60
2022-10-30T11:44:37.543Z,70.80
2022-10-30T11:47:41.401Z,71.00
2022-10-30T11:50:50.126Z,71.10
2022-10-30T11:53:53.320Z,71.20
2022-10-30T11:56:59.871Z,71.00
2022-10-30T12:00:07.952Z,71.30
2022-10-30T12:03:30.519Z,71.30
2022-10-30T12:06:33.459Z,71.70
2022-10-30T12:09:44.799Z,71.60
2022-10-30T12:12:52.592Z,71.80
2022-10-30T12:16:13.855Z,72.00
2022-10-30T12:19:19.298Z,72.30
2022-10-30T12:22:29.562Z,72.40
2022-10-30T12:25:33.517Z,72.60
2022-10-30T12:28:39.455Z,72.90
2022-10-30T12:31:50.078Z,72.60
2022-10-30T12:35:01.420Z,72.60
2022-10-30T12:38:11.826Z,72.60
2022-10-30T12:41:24.654Z,72.60
2022-10-30T12:44:34.786Z,72.70
2022-10-30T12:47:46.609Z,72.90
2022-10-30T12:51:05.790Z,73.00
2022-10-30T12:54:25.497Z,73.60
2022-10-30T12:57:34.524Z,73.20
2022-10-30T13:00:51.290Z,73.00
2022-10-30T13:04:07.706Z,73.00
2022-10-30T13:07:23.305Z,73.40
2022-10-30T13:10:33.585Z,73.40
2022-10-30T13:13:40.356Z,73.80
2022-10-30T13:16:44.740Z,73.60
2022-10-30T13:19:48.956Z,73.90
2022-10-30T13:22:57.565Z,74.00
2022-10-30T13:26:14.491Z,74.30
2022-10-30T13:29:28.870Z,74.00
2022-10-30T13:32:41.791Z,74.10
2022-10-30T13:35:56.021Z,74.40
2022-10-30T13:39:10.012Z,74.10
2022-10-30T13:42:39.793Z,74.00
2022-10-30T13:46:26.896Z,74.60
2022-10-30T13:49:58.740Z,74.50
2022-10-30T13:53:07.285Z,74.80
2022-10-30T13:56:18.469Z,74.60
2022-10-30T13:59:53.875Z,74.90
2022-10-30T14:03:19.782Z,75.40
2022-10-30T14:06:40.982Z,75.30
2022-10-30T14:10:00.376Z,75.10
2022-10-30T14:13:18.481Z,75.20
2022-10-30T14:16:42.830Z,75.40
2022-10-30T14:20:26.831Z,75.70
2022-10-30T14:23:36.734Z,75.90
2022-10-30T14:26:47.248Z,75.60
2022-10-30T14:29:54.298Z,75.50
2022-10-30T14:32:57.464Z,76.00
2022-10-30T14:36:23.034Z,75.60
2022-10-30T14:39:31.139Z,76.40
2022-10-30T14:42:47.665Z,76.20
2022-10-30T14:45:57.238Z,76.00
2022-10-30T14:49:28.656Z,76.00
2022-10-30T14:52:47.933Z,76.50
2022-10-30T14:56:06.457Z,76.20
2022-10-30T14:59:35.803Z,76.50
2022-10-30T15:02:50.827Z,76.70
2022-10-30T15:05:58.659Z,76.20
2022-10-30T15:09:23.894Z,76.20
2022-10-30T15:13:01.382Z,76.70
2022-10-30T15:16:09.413Z,76.70
2022-10-30T15:19:16.469Z,76.50
2022-10-30T15:22:22.993Z,76.50
2022-10-30T15:25:34.119Z,76.10
2022-10-30T15:28:41.268Z,76.60
2022-10-30T15:31:44.354Z,76.80
2022-10-30T15:34:56.318Z,76.70
2022-10-30T15:38:05.935Z,77.50
2022-10-30T15:41:10.880Z,77.20
2022-10-30T15:44:18.577Z,77.30
2022-10-30T15:47:21.873Z,77.50
2022-10-30T15:50:25.081Z,77.50
2022-10-30T15:53:41.506Z,77.40
2022-10-30T15:57:26.980Z,78.00
2022-10-30T16:00:24.852Z,77.70
2022-10-30T16:03:29.271Z,77.60
2022-10-30T16:06:33.320Z,77.60
2022-10-30T16:09:36.262Z,77.70
2022-10-30T16:12:39.358Z,77.70
2022-10-30T16:15:47.265Z,77.70
2022-10-30T16:18:51.583Z,77.80
2022-10-30T16:21:55.309Z,77.70
2022-10-30T16:24:59.230Z,77.90
2022-10-30T16:28:02.665Z,77.80
2022-10-30T16:31:14.321Z,77.80
2022-10-30T16:34:26.900Z,77.80
2022-10-30T16:37:37.256Z,77.90
2022-10-30T16:40:40.788Z,77.90
2022-10-30T16:44:09.176Z,77.50
2022-10-30T16:47:26.677Z,77.70
2022-10-30T16:50:35.016Z,78.20
2022-10-30T16:53:38.368Z,77.70
2022-10-30T16:56:47.387Z,77.70
2022-10-30T16:59:52.104Z,77.80
2022-10-30T17:02:59.853Z,77.80
2022-10-30T17:06:06.571Z,77.90
2022-10-30T17:09:19.583Z,77.80
2022-10-30T17:12:25.060Z,77.80
2022-10-30T17:15:28.120Z,77.80
2022-10-30T17:18:33.140Z,77.90
2022-10-30T17:21:41.842Z,78.10
2022-10-30T17:24:47.434Z,78.30
2022-10-30T17:27:51.774Z,78.50
2022-10-30T17:30:55.494Z,78.30
2022-10-30T17:34:15.803Z,78.40
2022-10-30T17:37:18.766Z,79.00
2022-10-30T17:40:21.964Z,78.50
2022-10-30T17:43:29.368Z,78.50
2022-10-30T17:46:32.513Z,79.10
2022-10-30T17:49:36.839Z,79.00
2022-10-30T17:52:39.904Z,79.40
2022-10-30T17:55:46.847Z,79.10
2022-10-30T17:58:50.067Z,79.30
2022-10-30T18:01:53.118Z,79.20
2022-10-30T18:04:57.738Z,79.30
2022-10-30T18:08:00.742Z,79.90
2022-10-30T18:11:03.725Z,79.40
2022-10-30T18:14:07.001Z,79.50
2022-10-30T18:17:10.977Z,79.50
2022-10-30T18:20:15.446Z,79.60
2022-10-30T18:26:46.301Z,79.90
2022-10-30T18:29:49.465Z,79.70
2022-10-30T18:32:52.829Z,79.60
2022-10-30T18:35:59.133Z,79.70
2022-10-30T18:39:02.079Z,79.80
2022-10-30T18:42:05.595Z,79.60
2022-10-30T18:45:21.334Z,79.60
2022-10-30T18:48:24.343Z,80.00
2022-10-30T18:51:30.190Z,79.60
2022-10-30T18:54:33.094Z,79.80
2022-10-30T18:57:35.989Z,79.60
2022-10-30T19:01:09.877Z,79.70
2022-10-30T19:04:04.645Z,79.80
2022-10-30T19:07:09.918Z,79.90
2022-10-30T19:10:12.998Z,79.80
2022-10-30T19:13:19.820Z,79.80
2022-10-30T19:16:25.123Z,79.70
2022-10-30T19:19:28.085Z,79.70
2022-10-30T19:22:32.523Z,79.50
2022-10-30T19:25:37.248Z,79.30
2022-10-30T19:28:41.009Z,79.40
2022-10-30T19:31:44.040Z,79.30
2022-10-30T19:34:47.074Z,79.40
2022-10-30T19:37:51.509Z,79.50
2022-10-30T19:40:54.920Z,79.60
2022-10-30T19:43:57.988Z,79.90
2022-10-30T19:47:00.958Z,79.50
2022-10-30T19:50:18.767Z,79.40
2022-10-30T19:53:23.181Z,79.30
2022-10-30T19:56:26.233Z,79.30
2022-10-30T19:59:29.298Z,79.50
2022-10-30T20:02:32.270Z,79.20
2022-10-30T20:05:38.479Z,79.40
2022-10-30T20:08:43.282Z,79.70
2022-10-30T20:11:47.218Z,79.70
2022-10-30T20:14:50.244Z,79.40
2022-10-30T20:17:53.232Z,79.30
2022-10-30T20:20:58.857Z,79.30
2022-10-30T20:24:03.198Z,79.20
2022-10-30T20:27:07.165Z,79.30
2022-10-30T20:30:17.049Z,79.10
2022-10-30T20:33:22.166Z,79.30
2022-10-30T20:36:25.235Z,79.60
2022-10-30T20:39:29.537Z,79.10
2022-10-30T20:42:36.994Z,79.20
2022-10-30T20:45:40.372Z,79.20
2022-10-30T20:48:43.428Z,79.10
2022-10-30T20:51:47.324Z,79.00
2022-10-30T20:54:51.678Z,79.00
2022-10-30T20:57:54.734Z,79.10
2022-10-30T21:00:59.568Z,79.10
2022-10-30T21:04:02.531Z,79.10
2022-10-30T21:07:05.556Z,79.20
2022-10-30T21:10:10.590Z,79.20
2022-10-30T21:13:13.702Z,79.20
2022-10-30T21:16:16.751Z,79.70
2022-10-30T21:19:19.686Z,79.20
2022-10-30T21:22:22.605Z,79.20
2022-10-30T21:25:27.243Z,79.10
2022-10-30T21:28:31.191Z,79.30
2022-10-30T21:31:34.481Z,79.20
2022-10-30T21:34:37.588Z,79.40
2022-10-30T21:37:40.740Z,79.10
2022-10-30T21:40:45.000Z,78.90
2022-10-30T21:43:52.100Z,78.90
2022-10-30T21:46:55.179Z,79.00
2022-10-30T21:49:58.370Z,79.10
2022-10-30T21:53:01.602Z,79.10
2022-10-30T21:56:08.739Z,79.10
2022-10-30T21:59:13.295Z,79.30
2022-10-30T22:02:16.508Z,79.00
2022-10-30T22:05:19.552Z,79.00
2022-10-30T22:08:22.569Z,79.00
2022-10-30T22:11:29.043Z,78.90
2022-10-30T22:14:31.998Z,79.30
2022-10-30T22:17:35.204Z,79.60
2022-10-30T22:20:39.008Z,79.10
2022-10-30T22:23:43.084Z,79.10
2022-10-30T22:26:47.266Z,79.10
2022-10-30T22:29:50.291Z,79.30
2022-10-30T22:32:53.337Z,79.00
2022-10-30T22:35:56.757Z,79.10
2022-10-30T22:39:02.920Z,79.20
2022-10-30T22:42:07.385Z,79.10
2022-10-30T22:45:11.021Z,79.00
2022-10-30T22:48:14.034Z,78.90
2022-10-30T22:51:19.503Z,78.90
2022-10-30T22:54:22.558Z,79.00
2022-10-30T22:57:26.843Z,78.80
2022-10-30T23:00:30.880Z,78.90
2022-10-30T23:03:33.797Z,79.30
2022-10-30T23:06:38.474Z,79.00
2022-10-30T23:09:41.542Z,79.00
2022-10-30T23:12:45.839Z,79.00
2022-10-30T23:15:48.877Z,78.90
2022-10-30T23:18:54.615Z,78.90
2022-10-30T23:21:58.584Z,78.90
2022-10-30T23:25:01.650Z,79.00
2022-10-30T23:28:07.043Z,78.80
2022-10-30T23:31:10.852Z,78.80
2022-10-30T23:34:17.230Z,78.80
2022-10-30T23:37:20.273Z,78.80
2022-10-30T23:40:23.205Z,78.80
2022-10-30T23:43:27.549Z,78.70
2022-10-30T23:46:30.678Z,78.70
2022-10-30T23:49:34.327Z,78.70
2022-10-30T23:52:37.599Z,78.70
2022-10-30T23:55:40.763Z,78.60
2022-10-30T23:58:46.505Z,78.60
